sensor_id;sensor_type;location;lat;lon;timestamp;P1;durP1;ratioP1;P2;durP2;ratioP2
2187;SDS011;1100;52.014;8.540;2022-07-24T00:02:04;4.53;;;1.83;;
2187;SDS011;1100;52.014;8.540;2022-07-24T00:04:29;6.00;;;2.33;;
2187;SDS011;1100;52.014;8.540;2022-07-24T00:06:55;5.53;;;2.23;;
2187;SDS011;1100;52.014;8.540;2022-07-24T00:09:20;5.32;;;1.70;;
2187;SDS011;1100;52.014;8.540;2022-07-24T00:11:45;5.87;;;1.80;;
2187;SDS011;1100;52.014;8.540;2022-07-24T00:14:11;7.43;;;2.00;;
2187;SDS011;1100;52.014;8.540;2022-07-24T00:16:36;7.07;;;2.40;;
2187;SDS011;1100;52.014;8.540;2022-07-24T00:19:02;4.78;;;2.00;;
2187;SDS011;1100;52.014;8.540;2022-07-24T00:21:27;4.43;;;1.63;;
2187;SDS011;1100;52.014;8.540;2022-07-24T00:23:53;4.80;;;1.90;;
2187;SDS011;1100;52.014;8.540;2022-07-24T00:26:18;4.97;;;1.80;;
2187;SDS011;1100;52.014;8.540;2022-07-24T00:28:44;4.95;;;1.80;;
2187;SDS011;1100;52.014;8.540;2022-07-24T00:31:09;5.07;;;1.80;;
2187;SDS011;1100;52.014;8.540;2022-07-24T00:33:35;5.53;;;1.77;;
2187;SDS011;1100;52.014;8.540;2022-07-24T00:36:01;4.50;;;1.80;;
2187;SDS011;1100;52.014;8.540;2022-07-24T00:38:27;7.07;;;2.20;;
2187;SDS011;1100;52.014;8.540;2022-07-24T00:40:53;4.30;;;1.65;;
2187;SDS011;1100;52.014;8.540;2022-07-24T00:43:18;5.57;;;1.70;;
2187;SDS011;1100;52.014;8.540;2022-07-24T00:45:44;5.82;;;2.20;;
2187;SDS011;1100;52.014;8.540;2022-07-24T00:48:10;4.97;;;1.83;;
2187;SDS011;1100;52.014;8.540;2022-07-24T00:50:35;4.50;;;1.87;;
2187;SDS011;1100;52.014;8.540;2022-07-24T00:55:41;4.75;;;1.83;;
2187;SDS011;1100;52.014;8.540;2022-07-24T00:58:07;4.95;;;1.98;;
2187;SDS011;1100;52.014;8.540;2022-07-24T01:00:33;5.63;;;1.70;;
2187;SDS011;1100;52.014;8.540;2022-07-24T01:02:58;5.03;;;1.90;;
2187;SDS011;1100;52.014;8.540;2022-07-24T01:05:24;5.07;;;1.80;;
2187;SDS011;1100;52.014;8.540;2022-07-24T01:07:50;4.03;;;1.60;;
2187;SDS011;1100;52.014;8.540;2022-07-24T01:10:15;5.30;;;1.50;;
2187;SDS011;1100;52.014;8.540;2022-07-24T01:12:41;5.00;;;1.50;;
2187;SDS011;1100;52.014;8.540;2022-07-24T01:15:08;4.07;;;1.40;;
2187;SDS011;1100;52.014;8.540;2022-07-24T01:17:36;3.70;;;1.30;;
2187;SDS011;1100;52.014;8.540;2022-07-24T01:20:05;5.10;;;1.35;;
2187;SDS011;1100;52.014;8.540;2022-07-24T01:22:38;4.97;;;1.40;;
2187;SDS011;1100;52.014;8.540;2022-07-24T01:25:04;4.38;;;1.35;;
2187;SDS011;1100;52.014;8.540;2022-07-24T01:27:30;3.60;;;1.30;;
2187;SDS011;1100;52.014;8.540;2022-07-24T01:29:55;4.22;;;1.38;;
2187;SDS011;1100;52.014;8.540;2022-07-24T01:32:21;3.63;;;1.40;;
2187;SDS011;1100;52.014;8.540;2022-07-24T01:34:46;4.10;;;1.67;;
2187;SDS011;1100;52.014;8.540;2022-07-24T01:37:12;4.30;;;1.63;;
2187;SDS011;1100;52.014;8.540;2022-07-24T01:39:37;3.88;;;1.30;;
2187;SDS011;1100;52.014;8.540;2022-07-24T01:42:03;4.20;;;1.47;;
2187;SDS011;1100;52.014;8.540;2022-07-24T01:44:28;5.50;;;1.77;;
2187;SDS011;1100;52.014;8.540;2022-07-24T01:46:54;5.30;;;2.20;;
2187;SDS011;1100;52.014;8.540;2022-07-24T01:49:19;4.53;;;1.70;;
2187;SDS011;1100;52.014;8.540;2022-07-24T01:51:44;4.40;;;1.53;;
2187;SDS011;1100;52.014;8.540;2022-07-24T01:54:10;4.30;;;1.67;;
2187;SDS011;1100;52.014;8.540;2022-07-24T01:56:35;4.80;;;1.60;;
2187;SDS011;1100;52.014;8.540;2022-07-24T01:59:01;3.85;;;1.35;;
2187;SDS011;1100;52.014;8.540;2022-07-24T02:01:27;4.60;;;1.30;;
2187;SDS011;1100;52.014;8.540;2022-07-24T02:03:54;4.95;;;1.88;;
2187;SDS011;1100;52.014;8.540;2022-07-24T02:06:19;4.87;;;1.57;;
2187;SDS011;1100;52.014;8.540;2022-07-24T02:08:45;4.87;;;1.60;;
2187;SDS011;1100;52.014;8.540;2022-07-24T02:11:10;7.60;;;1.70;;
2187;SDS011;1100;52.014;8.540;2022-07-24T02:13:36;4.17;;;1.30;;
2187;SDS011;1100;52.014;8.540;2022-07-24T02:16:02;4.38;;;1.50;;
2187;SDS011;1100;52.014;8.540;2022-07-24T02:18:27;4.38;;;1.58;;
2187;SDS011;1100;52.014;8.540;2022-07-24T02:20:53;6.13;;;1.40;;
2187;SDS011;1100;52.014;8.540;2022-07-24T02:23:18;4.67;;;1.73;;
2187;SDS011;1100;52.014;8.540;2022-07-24T02:25:45;5.28;;;2.10;;
2187;SDS011;1100;52.014;8.540;2022-07-24T02:28:14;5.40;;;1.77;;
2187;SDS011;1100;52.014;8.540;2022-07-24T02:30:40;5.05;;;2.20;;
2187;SDS011;1100;52.014;8.540;2022-07-24T02:33:06;6.77;;;2.50;;
2187;SDS011;1100;52.014;8.540;2022-07-24T02:35:31;5.57;;;2.55;;
2187;SDS011;1100;52.014;8.540;2022-07-24T02:37:57;5.07;;;1.83;;
2187;SDS011;1100;52.014;8.540;2022-07-24T02:40:23;5.45;;;2.25;;
2187;SDS011;1100;52.014;8.540;2022-07-24T02:42:48;5.03;;;2.50;;
2187;SDS011;1100;52.014;8.540;2022-07-24T02:45:14;5.70;;;2.60;;
2187;SDS011;1100;52.014;8.540;2022-07-24T02:47:49;6.15;;;2.90;;
2187;SDS011;1100;52.014;8.540;2022-07-24T02:50:19;5.10;;;2.40;;
2187;SDS011;1100;52.014;8.540;2022-07-24T02:52:46;5.55;;;2.60;;
2187;SDS011;1100;52.014;8.540;2022-07-24T02:55:12;6.25;;;2.55;;
2187;SDS011;1100;52.014;8.540;2022-07-24T02:57:38;5.30;;;2.50;;
2187;SDS011;1100;52.014;8.540;2022-07-24T03:00:04;5.80;;;2.80;;
2187;SDS011;1100;52.014;8.540;2022-07-24T03:02:32;5.15;;;2.55;;
2187;SDS011;1100;52.014;8.540;2022-07-24T03:04:57;5.57;;;3.10;;
2187;SDS011;1100;52.014;8.540;2022-07-24T03:07:23;6.17;;;3.03;;
2187;SDS011;1100;52.014;8.540;2022-07-24T03:09:51;6.13;;;3.10;;
2187;SDS011;1100;52.014;8.540;2022-07-24T03:12:17;6.93;;;3.50;;
2187;SDS011;1100;52.014;8.540;2022-07-24T03:14:42;7.18;;;3.13;;
2187;SDS011;1100;52.014;8.540;2022-07-24T03:17:07;6.57;;;3.33;;
2187;SDS011;1100;52.014;8.540;2022-07-24T03:19:33;5.43;;;2.47;;
2187;SDS011;1100;52.014;8.540;2022-07-24T03:21:58;6.23;;;2.77;;
2187;SDS011;1100;52.014;8.540;2022-07-24T03:24:23;5.17;;;2.70;;
2187;SDS011;1100;52.014;8.540;2022-07-24T03:26:49;6.63;;;2.58;;
2187;SDS011;1100;52.014;8.540;2022-07-24T03:29:14;5.93;;;2.60;;
2187;SDS011;1100;52.014;8.540;2022-07-24T03:31:56;6.97;;;2.58;;
2187;SDS011;1100;52.014;8.540;2022-07-24T03:34:24;5.33;;;2.50;;
2187;SDS011;1100;52.014;8.540;2022-07-24T03:36:53;5.80;;;2.70;;
2187;SDS011;1100;52.014;8.540;2022-07-24T03:39:19;6.85;;;2.67;;
2187;SDS011;1100;52.014;8.540;2022-07-24T03:41:44;6.00;;;2.50;;
2187;SDS011;1100;52.014;8.540;2022-07-24T03:44:10;4.93;;;2.67;;
2187;SDS011;1100;52.014;8.540;2022-07-24T03:46:35;5.00;;;2.35;;
2187;SDS011;1100;52.014;8.540;2022-07-24T03:49:01;4.70;;;2.37;;
2187;SDS011;1100;52.014;8.540;2022-07-24T03:51:26;6.17;;;2.70;;
2187;SDS011;1100;52.014;8.540;2022-07-24T03:53:52;5.32;;;2.38;;
2187;SDS011;1100;52.014;8.540;2022-07-24T03:56:18;5.70;;;2.60;;
2187;SDS011;1100;52.014;8.540;2022-07-24T03:58:43;4.97;;;2.67;;
2187;SDS011;1100;52.014;8.540;2022-07-24T04:01:09;6.33;;;2.50;;
2187;SDS011;1100;52.014;8.540;2022-07-24T04:03:34;5.20;;;2.30;;
2187;SDS011;1100;52.014;8.540;2022-07-24T04:06:03;6.50;;;2.57;;
2187;SDS011;1100;52.014;8.540;2022-07-24T04:08:39;5.13;;;2.10;;
2187;SDS011;1100;52.014;8.540;2022-07-24T04:11:04;6.30;;;2.40;;
2187;SDS011;1100;52.014;8.540;2022-07-24T04:13:32;6.13;;;2.70;;
2187;SDS011;1100;52.014;8.540;2022-07-24T04:15:57;5.27;;;2.33;;
2187;SDS011;1100;52.014;8.540;2022-07-24T04:18:23;5.78;;;2.10;;
2187;SDS011;1100;52.014;8.540;2022-07-24T04:20:49;5.77;;;2.13;;
2187;SDS011;1100;52.014;8.540;2022-07-24T04:23:14;6.33;;;2.70;;
2187;SDS011;1100;52.014;8.540;2022-07-24T04:25:43;4.97;;;2.40;;
2187;SDS011;1100;52.014;8.540;2022-07-24T04:28:08;5.83;;;2.60;;
2187;SDS011;1100;52.014;8.540;2022-07-24T04:30:34;5.63;;;2.25;;
2187;SDS011;1100;52.014;8.540;2022-07-24T04:32:59;5.87;;;2.23;;
2187;SDS011;1100;52.014;8.540;2022-07-24T04:35:25;4.93;;;2.30;;
2187;SDS011;1100;52.014;8.540;2022-07-24T04:37:50;5.00;;;2.28;;
2187;SDS011;1100;52.014;8.540;2022-07-24T04:40:16;5.37;;;2.20;;
2187;SDS011;1100;52.014;8.540;2022-07-24T04:42:41;5.37;;;2.20;;
2187;SDS011;1100;52.014;8.540;2022-07-24T04:45:07;4.50;;;2.20;;
2187;SDS011;1100;52.014;8.540;2022-07-24T04:47:34;6.18;;;2.15;;
2187;SDS011;1100;52.014;8.540;2022-07-24T04:50:00;5.15;;;2.42;;
2187;SDS011;1100;52.014;8.540;2022-07-24T04:52:26;6.78;;;2.50;;
2187;SDS011;1100;52.014;8.540;2022-07-24T04:54:54;6.30;;;2.63;;
2187;SDS011;1100;52.014;8.540;2022-07-24T04:57:19;4.72;;;2.30;;
2187;SDS011;1100;52.014;8.540;2022-07-24T04:59:45;5.10;;;2.20;;
2187;SDS011;1100;52.014;8.540;2022-07-24T05:02:10;4.77;;;2.40;;
2187;SDS011;1100;52.014;8.540;2022-07-24T05:04:35;5.73;;;2.30;;
2187;SDS011;1100;52.014;8.540;2022-07-24T05:07:01;5.03;;;2.00;;
2187;SDS011;1100;52.014;8.540;2022-07-24T05:09:27;6.75;;;2.83;;
2187;SDS011;1100;52.014;8.540;2022-07-24T05:11:53;5.25;;;2.17;;
2187;SDS011;1100;52.014;8.540;2022-07-24T05:14:18;4.93;;;2.27;;
2187;SDS011;1100;52.014;8.540;2022-07-24T05:16:44;5.00;;;2.33;;
2187;SDS011;1100;52.014;8.540;2022-07-24T05:19:09;5.70;;;2.50;;
2187;SDS011;1100;52.014;8.540;2022-07-24T05:21:35;5.33;;;2.63;;
2187;SDS011;1100;52.014;8.540;2022-07-24T05:24:00;6.63;;;2.35;;
2187;SDS011;1100;52.014;8.540;2022-07-24T05:26:27;5.00;;;2.20;;
2187;SDS011;1100;52.014;8.540;2022-07-24T05:28:53;5.20;;;2.40;;
2187;SDS011;1100;52.014;8.540;2022-07-24T05:31:19;4.63;;;2.20;;
2187;SDS011;1100;52.014;8.540;2022-07-24T05:33:44;4.83;;;2.17;;
2187;SDS011;1100;52.014;8.540;2022-07-24T05:36:10;7.00;;;2.50;;
2187;SDS011;1100;52.014;8.540;2022-07-24T05:38:35;4.93;;;2.20;;
2187;SDS011;1100;52.014;8.540;2022-07-24T05:41:01;5.53;;;2.30;;
2187;SDS011;1100;52.014;8.540;2022-07-24T05:43:27;8.38;;;2.80;;
2187;SDS011;1100;52.014;8.540;2022-07-24T05:45:52;4.97;;;2.00;;
2187;SDS011;1100;52.014;8.540;2022-07-24T05:48:18;5.80;;;2.50;;
2187;SDS011;1100;52.014;8.540;2022-07-24T05:50:43;6.47;;;2.33;;
2187;SDS011;1100;52.014;8.540;2022-07-24T05:53:09;5.00;;;2.10;;
2187;SDS011;1100;52.014;8.540;2022-07-24T05:55:34;4.83;;;2.30;;
2187;SDS011;1100;52.014;8.540;2022-07-24T05:58:00;5.63;;;2.17;;
2187;SDS011;1100;52.014;8.540;2022-07-24T06:00:27;4.87;;;2.10;;
2187;SDS011;1100;52.014;8.540;2022-07-24T06:02:52;4.40;;;1.85;;
2187;SDS011;1100;52.014;8.540;2022-07-24T06:05:17;4.67;;;2.00;;
2187;SDS011;1100;52.014;8.540;2022-07-24T06:07:44;5.30;;;1.70;;
2187;SDS011;1100;52.014;8.540;2022-07-24T06:10:10;6.18;;;1.85;;
2187;SDS011;1100;52.014;8.540;2022-07-24T06:12:36;4.20;;;1.60;;
2187;SDS011;1100;52.014;8.540;2022-07-24T06:15:02;5.33;;;2.07;;
2187;SDS011;1100;52.014;8.540;2022-07-24T06:17:28;4.80;;;1.77;;
2187;SDS011;1100;52.014;8.540;2022-07-24T06:19:53;5.97;;;2.10;;
2187;SDS011;1100;52.014;8.540;2022-07-24T06:22:19;5.40;;;2.22;;
2187;SDS011;1100;52.014;8.540;2022-07-24T06:24:44;5.80;;;2.27;;
2187;SDS011;1100;52.014;8.540;2022-07-24T06:27:10;5.07;;;2.10;;
2187;SDS011;1100;52.014;8.540;2022-07-24T06:29:35;4.17;;;1.90;;
2187;SDS011;1100;52.014;8.540;2022-07-24T06:32:01;4.60;;;1.98;;
2187;SDS011;1100;52.014;8.540;2022-07-24T06:34:26;4.93;;;2.20;;
2187;SDS011;1100;52.014;8.540;2022-07-24T06:36:52;5.80;;;2.07;;
2187;SDS011;1100;52.014;8.540;2022-07-24T06:39:17;5.30;;;2.40;;
2187;SDS011;1100;52.014;8.540;2022-07-24T06:41:43;4.53;;;2.20;;
2187;SDS011;1100;52.014;8.540;2022-07-24T06:44:09;7.38;;;2.50;;
2187;SDS011;1100;52.014;8.540;2022-07-24T06:46:34;4.57;;;2.17;;
2187;SDS011;1100;52.014;8.540;2022-07-24T06:49:00;5.38;;;2.50;;
2187;SDS011;1100;52.014;8.540;2022-07-24T06:51:25;6.40;;;2.47;;
2187;SDS011;1100;52.014;8.540;2022-07-24T06:53:51;8.87;;;2.60;;
2187;SDS011;1100;52.014;8.540;2022-07-24T06:56:16;5.93;;;2.27;;
2187;SDS011;1100;52.014;8.540;2022-07-24T06:58:41;6.53;;;2.65;;
2187;SDS011;1100;52.014;8.540;2022-07-24T07:01:07;5.87;;;2.03;;
2187;SDS011;1100;52.014;8.540;2022-07-24T07:03:33;5.47;;;2.10;;
2187;SDS011;1100;52.014;8.540;2022-07-24T07:05:58;6.82;;;2.28;;
2187;SDS011;1100;52.014;8.540;2022-07-24T07:08:23;5.13;;;2.47;;
2187;SDS011;1100;52.014;8.540;2022-07-24T07:10:49;4.60;;;2.10;;
2187;SDS011;1100;52.014;8.540;2022-07-24T07:13:14;6.20;;;2.53;;
2187;SDS011;1100;52.014;8.540;2022-07-24T07:15:40;4.93;;;2.37;;
2187;SDS011;1100;52.014;8.540;2022-07-24T07:18:05;5.38;;;2.38;;
2187;SDS011;1100;52.014;8.540;2022-07-24T07:20:30;5.10;;;2.07;;
2187;SDS011;1100;52.014;8.540;2022-07-24T07:22:56;7.10;;;2.20;;
2187;SDS011;1100;52.014;8.540;2022-07-24T07:25:21;6.73;;;2.40;;
2187;SDS011;1100;52.014;8.540;2022-07-24T07:27:47;5.15;;;2.55;;
2187;SDS011;1100;52.014;8.540;2022-07-24T07:30:13;6.07;;;2.50;;
2187;SDS011;1100;52.014;8.540;2022-07-24T07:32:38;5.05;;;2.53;;
2187;SDS011;1100;52.014;8.540;2022-07-24T07:35:04;4.80;;;2.37;;
2187;SDS011;1100;52.014;8.540;2022-07-24T07:37:30;7.78;;;2.90;;
2187;SDS011;1100;52.014;8.540;2022-07-24T07:39:55;5.07;;;2.40;;
2187;SDS011;1100;52.014;8.540;2022-07-24T07:42:22;5.40;;;2.65;;
2187;SDS011;1100;52.014;8.540;2022-07-24T07:44:48;6.50;;;2.43;;
2187;SDS011;1100;52.014;8.540;2022-07-24T07:47:13;5.97;;;2.70;;
2187;SDS011;1100;52.014;8.540;2022-07-24T07:49:39;6.10;;;2.95;;
2187;SDS011;1100;52.014;8.540;2022-07-24T07:52:04;6.10;;;2.67;;
2187;SDS011;1100;52.014;8.540;2022-07-24T07:54:30;6.57;;;2.58;;
2187;SDS011;1100;52.014;8.540;2022-07-24T07:56:55;6.80;;;2.40;;
2187;SDS011;1100;52.014;8.540;2022-07-24T07:59:22;5.47;;;2.40;;
2187;SDS011;1100;52.014;8.540;2022-07-24T08:01:48;4.50;;;2.03;;
2187;SDS011;1100;52.014;8.540;2022-07-24T08:04:14;5.60;;;2.60;;
2187;SDS011;1100;52.014;8.540;2022-07-24T08:06:39;6.17;;;2.47;;
2187;SDS011;1100;52.014;8.540;2022-07-24T08:09:05;5.13;;;2.60;;
2187;SDS011;1100;52.014;8.540;2022-07-24T08:11:30;6.70;;;3.13;;
2187;SDS011;1100;52.014;8.540;2022-07-24T08:13:56;7.35;;;2.90;;
2187;SDS011;1100;52.014;8.540;2022-07-24T08:16:21;5.90;;;2.70;;
2187;SDS011;1100;52.014;8.540;2022-07-24T08:18:46;7.93;;;2.63;;
2187;SDS011;1100;52.014;8.540;2022-07-24T08:21:12;7.47;;;2.80;;
2187;SDS011;1100;52.014;8.540;2022-07-24T08:23:40;6.03;;;2.60;;
2187;SDS011;1100;52.014;8.540;2022-07-24T08:26:05;8.73;;;3.27;;
2187;SDS011;1100;52.014;8.540;2022-07-24T08:28:30;6.63;;;2.93;;
2187;SDS011;1100;52.014;8.540;2022-07-24T08:30:56;5.32;;;2.85;;
2187;SDS011;1100;52.014;8.540;2022-07-24T08:33:21;6.30;;;2.83;;
2187;SDS011;1100;52.014;8.540;2022-07-24T08:35:46;5.57;;;2.80;;
2187;SDS011;1100;52.014;8.540;2022-07-24T08:38:12;6.27;;;2.87;;
2187;SDS011;1100;52.014;8.540;2022-07-24T08:40:38;5.67;;;2.73;;
2187;SDS011;1100;52.014;8.540;2022-07-24T08:43:04;6.25;;;3.45;;
2187;SDS011;1100;52.014;8.540;2022-07-24T08:45:33;5.80;;;3.00;;
2187;SDS011;1100;52.014;8.540;2022-07-24T08:48:02;5.50;;;2.80;;
2187;SDS011;1100;52.014;8.540;2022-07-24T08:50:29;5.70;;;2.97;;
2187;SDS011;1100;52.014;8.540;2022-07-24T08:52:56;6.15;;;2.90;;
2187;SDS011;1100;52.014;8.540;2022-07-24T08:55:22;5.85;;;3.03;;
2187;SDS011;1100;52.014;8.540;2022-07-24T08:57:48;5.60;;;2.80;;
2187;SDS011;1100;52.014;8.540;2022-07-24T09:00:13;5.93;;;2.80;;
2187;SDS011;1100;52.014;8.540;2022-07-24T09:02:39;7.10;;;2.50;;
2187;SDS011;1100;52.014;8.540;2022-07-24T09:05:04;5.33;;;2.57;;
2187;SDS011;1100;52.014;8.540;2022-07-24T09:07:30;8.93;;;2.77;;
2187;SDS011;1100;52.014;8.540;2022-07-24T09:10:06;7.20;;;3.13;;
2187;SDS011;1100;52.014;8.540;2022-07-24T09:12:35;6.32;;;2.72;;
2187;SDS011;1100;52.014;8.540;2022-07-24T09:15:14;4.75;;;2.70;;
2187;SDS011;1100;52.014;8.540;2022-07-24T09:17:51;5.75;;;2.70;;
2187;SDS011;1100;52.014;8.540;2022-07-24T09:20:24;6.85;;;4.38;;
2187;SDS011;1100;52.014;8.540;2022-07-24T09:22:52;6.17;;;3.63;;
2187;SDS011;1100;52.014;8.540;2022-07-24T09:25:22;7.95;;;3.58;;
2187;SDS011;1100;52.014;8.540;2022-07-24T09:27:50;9.82;;;4.05;;
2187;SDS011;1100;52.014;8.540;2022-07-24T09:30:21;6.72;;;3.90;;
2187;SDS011;1100;52.014;8.540;2022-07-24T09:35:21;9.32;;;3.90;;
2187;SDS011;1100;52.014;8.540;2022-07-24T09:37:53;7.77;;;4.03;;
2187;SDS011;1100;52.014;8.540;2022-07-24T09:40:19;8.55;;;3.72;;
2187;SDS011;1100;52.014;8.540;2022-07-24T09:42:44;7.70;;;3.38;;
2187;SDS011;1100;52.014;8.540;2022-07-24T09:45:10;5.97;;;3.30;;
2187;SDS011;1100;52.014;8.540;2022-07-24T09:47:36;8.15;;;3.80;;
2187;SDS011;1100;52.014;8.540;2022-07-24T09:50:17;6.40;;;3.37;;
2187;SDS011;1100;52.014;8.540;2022-07-24T09:52:43;7.68;;;3.75;;
2187;SDS011;1100;52.014;8.540;2022-07-24T09:55:19;8.43;;;3.88;;
2187;SDS011;1100;52.014;8.540;2022-07-24T09:57:47;7.35;;;3.70;;
2187;SDS011;1100;52.014;8.540;2022-07-24T10:00:13;6.83;;;3.63;;
2187;SDS011;1100;52.014;8.540;2022-07-24T10:02:38;7.65;;;3.40;;
2187;SDS011;1100;52.014;8.540;2022-07-24T10:05:09;6.50;;;3.95;;
2187;SDS011;1100;52.014;8.540;2022-07-24T10:07:36;7.47;;;4.65;;
2187;SDS011;1100;52.014;8.540;2022-07-24T10:10:02;5.90;;;3.30;;
2187;SDS011;1100;52.014;8.540;2022-07-24T10:12:29;8.60;;;3.83;;
2187;SDS011;1100;52.014;8.540;2022-07-24T10:14:56;7.47;;;3.67;;
2187;SDS011;1100;52.014;8.540;2022-07-24T10:17:28;7.70;;;3.38;;
2187;SDS011;1100;52.014;8.540;2022-07-24T10:19:56;7.93;;;3.30;;
2187;SDS011;1100;52.014;8.540;2022-07-24T10:22:30;8.90;;;3.42;;
2187;SDS011;1100;52.014;8.540;2022-07-24T10:25:07;9.40;;;3.85;;
2187;SDS011;1100;52.014;8.540;2022-07-24T10:27:35;6.45;;;3.50;;
2187;SDS011;1100;52.014;8.540;2022-07-24T10:30:06;6.82;;;3.55;;
2187;SDS011;1100;52.014;8.540;2022-07-24T10:32:34;7.93;;;3.47;;
2187;SDS011;1100;52.014;8.540;2022-07-24T10:45:30;7.60;;;3.42;;
2187;SDS011;1100;52.014;8.540;2022-07-24T10:47:56;7.63;;;3.60;;
2187;SDS011;1100;52.014;8.540;2022-07-24T10:50:22;7.20;;;4.00;;
2187;SDS011;1100;52.014;8.540;2022-07-24T10:52:48;6.68;;;3.80;;
2187;SDS011;1100;52.014;8.540;2022-07-24T10:55:24;6.75;;;3.92;;
2187;SDS011;1100;52.014;8.540;2022-07-24T10:57:58;5.83;;;3.60;;
2187;SDS011;1100;52.014;8.540;2022-07-24T11:00:33;7.07;;;4.00;;
2187;SDS011;1100;52.014;8.540;2022-07-24T11:03:08;7.32;;;3.78;;
2187;SDS011;1100;52.014;8.540;2022-07-24T11:05:43;7.53;;;4.20;;
2187;SDS011;1100;52.014;8.540;2022-07-24T11:08:26;7.80;;;4.22;;
2187;SDS011;1100;52.014;8.540;2022-07-24T11:10:57;8.13;;;3.87;;
2187;SDS011;1100;52.014;8.540;2022-07-24T11:18:41;6.78;;;4.13;;
2187;SDS011;1100;52.014;8.540;2022-07-24T11:21:30;6.72;;;3.97;;
2187;SDS011;1100;52.014;8.540;2022-07-24T11:26:46;7.82;;;3.90;;
2187;SDS011;1100;52.014;8.540;2022-07-24T11:29:45;7.28;;;4.40;;
2187;SDS011;1100;52.014;8.540;2022-07-24T11:32:12;6.77;;;3.93;;
2187;SDS011;1100;52.014;8.540;2022-07-24T11:34:42;7.10;;;4.10;;
2187;SDS011;1100;52.014;8.540;2022-07-24T11:37:12;7.03;;;3.92;;
2187;SDS011;1100;52.014;8.540;2022-07-24T11:39:38;7.10;;;4.03;;
2187;SDS011;1100;52.014;8.540;2022-07-24T11:42:09;6.10;;;3.97;;
2187;SDS011;1100;52.014;8.540;2022-07-24T11:44:39;7.97;;;4.65;;
2187;SDS011;1100;52.014;8.540;2022-07-24T11:47:09;7.07;;;3.97;;
2187;SDS011;1100;52.014;8.540;2022-07-24T11:49:38;8.27;;;4.18;;
2187;SDS011;1100;52.014;8.540;2022-07-24T11:52:16;9.27;;;4.38;;
2187;SDS011;1100;52.014;8.540;2022-07-24T11:54:42;7.43;;;3.80;;
2187;SDS011;1100;52.014;8.540;2022-07-24T11:57:19;8.02;;;4.10;;
2187;SDS011;1100;52.014;8.540;2022-07-24T11:59:49;7.78;;;3.95;;
2187;SDS011;1100;52.014;8.540;2022-07-24T12:02:16;7.17;;;3.70;;
2187;SDS011;1100;52.014;8.540;2022-07-24T12:04:42;8.40;;;3.78;;
2187;SDS011;1100;52.014;8.540;2022-07-24T12:07:14;8.18;;;3.90;;
2187;SDS011;1100;52.014;8.540;2022-07-24T12:12:22;10.40;;;4.63;;
2187;SDS011;1100;52.014;8.540;2022-07-24T12:14:53;6.43;;;3.70;;
2187;SDS011;1100;52.014;8.540;2022-07-24T12:17:26;6.28;;;4.10;;
2187;SDS011;1100;52.014;8.540;2022-07-24T12:19:52;6.50;;;3.63;;
2187;SDS011;1100;52.014;8.540;2022-07-24T12:22:20;7.30;;;4.07;;
2187;SDS011;1100;52.014;8.540;2022-07-24T12:24:46;8.48;;;3.88;;
2187;SDS011;1100;52.014;8.540;2022-07-24T12:27:12;6.70;;;3.55;;
2187;SDS011;1100;52.014;8.540;2022-07-24T12:29:57;6.57;;;3.80;;
2187;SDS011;1100;52.014;8.540;2022-07-24T12:32:22;7.43;;;3.30;;
2187;SDS011;1100;52.014;8.540;2022-07-24T12:34:48;8.07;;;4.07;;
2187;SDS011;1100;52.014;8.540;2022-07-24T12:37:17;6.28;;;4.00;;
2187;SDS011;1100;52.014;8.540;2022-07-24T12:39:45;6.22;;;3.40;;
2187;SDS011;1100;52.014;8.540;2022-07-24T12:42:12;5.80;;;3.53;;
2187;SDS011;1100;52.014;8.540;2022-07-24T12:44:41;7.37;;;3.90;;
2187;SDS011;1100;52.014;8.540;2022-07-24T12:47:08;5.78;;;3.63;;
2187;SDS011;1100;52.014;8.540;2022-07-24T12:49:44;6.03;;;3.40;;
2187;SDS011;1100;52.014;8.540;2022-07-24T12:52:25;7.20;;;3.50;;
2187;SDS011;1100;52.014;8.540;2022-07-24T12:54:53;6.50;;;3.67;;
2187;SDS011;1100;52.014;8.540;2022-07-24T12:57:21;8.43;;;4.00;;
2187;SDS011;1100;52.014;8.540;2022-07-24T12:59:48;6.23;;;3.20;;
2187;SDS011;1100;52.014;8.540;2022-07-24T13:02:24;7.30;;;3.65;;
2187;SDS011;1100;52.014;8.540;2022-07-24T13:04:50;6.22;;;3.60;;
2187;SDS011;1100;52.014;8.540;2022-07-24T13:07:19;8.88;;;3.97;;
2187;SDS011;1100;52.014;8.540;2022-07-24T13:09:46;6.32;;;3.60;;
2187;SDS011;1100;52.014;8.540;2022-07-24T13:12:11;8.27;;;3.63;;
2187;SDS011;1100;52.014;8.540;2022-07-24T13:14:37;6.25;;;3.75;;
2187;SDS011;1100;52.014;8.540;2022-07-24T13:17:04;5.97;;;3.87;;
2187;SDS011;1100;52.014;8.540;2022-07-24T13:19:33;7.03;;;3.70;;
2187;SDS011;1100;52.014;8.540;2022-07-24T13:21:59;5.63;;;3.43;;
2187;SDS011;1100;52.014;8.540;2022-07-24T13:24:24;7.95;;;3.65;;
2187;SDS011;1100;52.014;8.540;2022-07-24T13:26:49;7.30;;;3.67;;
2187;SDS011;1100;52.014;8.540;2022-07-24T13:29:15;6.20;;;3.40;;
2187;SDS011;1100;52.014;8.540;2022-07-24T13:31:41;6.87;;;3.20;;
2187;SDS011;1100;52.014;8.540;2022-07-24T13:34:07;7.30;;;3.70;;
2187;SDS011;1100;52.014;8.540;2022-07-24T13:36:34;6.65;;;3.47;;
2187;SDS011;1100;52.014;8.540;2022-07-24T13:39:00;6.22;;;3.08;;
2187;SDS011;1100;52.014;8.540;2022-07-24T13:41:25;5.33;;;3.33;;
2187;SDS011;1100;52.014;8.540;2022-07-24T13:43:51;7.05;;;3.38;;
2187;SDS011;1100;52.014;8.540;2022-07-24T13:46:17;6.93;;;3.30;;
2187;SDS011;1100;52.014;8.540;2022-07-24T13:48:43;5.53;;;3.15;;
2187;SDS011;1100;52.014;8.540;2022-07-24T13:51:09;6.03;;;3.30;;
2187;SDS011;1100;52.014;8.540;2022-07-24T13:53:35;6.05;;;3.47;;
2187;SDS011;1100;52.014;8.540;2022-07-24T13:56:03;6.38;;;3.25;;
2187;SDS011;1100;52.014;8.540;2022-07-24T13:58:29;6.55;;;3.15;;
2187;SDS011;1100;52.014;8.540;2022-07-24T14:00:55;7.33;;;3.63;;
2187;SDS011;1100;52.014;8.540;2022-07-24T14:03:20;6.83;;;3.50;;
2187;SDS011;1100;52.014;8.540;2022-07-24T14:05:45;6.33;;;3.50;;
2187;SDS011;1100;52.014;8.540;2022-07-24T14:08:11;5.57;;;3.20;;
2187;SDS011;1100;52.014;8.540;2022-07-24T14:10:36;5.93;;;3.00;;
2187;SDS011;1100;52.014;8.540;2022-07-24T14:13:02;7.60;;;3.23;;
2187;SDS011;1100;52.014;8.540;2022-07-24T14:15:27;6.40;;;3.40;;
2187;SDS011;1100;52.014;8.540;2022-07-24T14:17:54;5.35;;;3.00;;
2187;SDS011;1100;52.014;8.540;2022-07-24T14:20:20;5.90;;;3.00;;
2187;SDS011;1100;52.014;8.540;2022-07-24T14:22:46;6.53;;;3.25;;
2187;SDS011;1100;52.014;8.540;2022-07-24T14:25:11;6.90;;;3.20;;
2187;SDS011;1100;52.014;8.540;2022-07-24T14:27:37;6.57;;;3.20;;
2187;SDS011;1100;52.014;8.540;2022-07-24T14:30:03;5.82;;;3.40;;
2187;SDS011;1100;52.014;8.540;2022-07-24T14:32:30;4.65;;;2.75;;
2187;SDS011;1100;52.014;8.540;2022-07-24T14:34:56;6.33;;;3.10;;
2187;SDS011;1100;52.014;8.540;2022-07-24T14:37:21;5.27;;;2.77;;
2187;SDS011;1100;52.014;8.540;2022-07-24T14:39:46;6.73;;;3.00;;
2187;SDS011;1100;52.014;8.540;2022-07-24T14:42:12;5.03;;;3.10;;
2187;SDS011;1100;52.014;8.540;2022-07-24T14:44:37;5.10;;;2.73;;
2187;SDS011;1100;52.014;8.540;2022-07-24T14:47:02;6.20;;;3.10;;
2187;SDS011;1100;52.014;8.540;2022-07-24T14:49:30;5.65;;;3.10;;
2187;SDS011;1100;52.014;8.540;2022-07-24T14:51:56;4.77;;;3.03;;
2187;SDS011;1100;52.014;8.540;2022-07-24T14:54:21;5.88;;;2.80;;
2187;SDS011;1100;52.014;8.540;2022-07-24T14:56:47;6.17;;;2.87;;
2187;SDS011;1100;52.014;8.540;2022-07-24T14:59:12;5.03;;;2.90;;
2187;SDS011;1100;52.014;8.540;2022-07-24T15:01:38;4.93;;;2.83;;
2187;SDS011;1100;52.014;8.540;2022-07-24T15:04:03;5.60;;;2.87;;
2187;SDS011;1100;52.014;8.540;2022-07-24T15:06:29;5.55;;;3.40;;
2187;SDS011;1100;52.014;8.540;2022-07-24T15:08:55;6.10;;;3.20;;
2187;SDS011;1100;52.014;8.540;2022-07-24T15:11:20;5.57;;;3.08;;
2187;SDS011;1100;52.014;8.540;2022-07-24T15:13:49;5.83;;;3.20;;
2187;SDS011;1100;52.014;8.540;2022-07-24T15:16:14;5.95;;;3.20;;
2187;SDS011;1100;52.014;8.540;2022-07-24T15:18:40;6.00;;;2.90;;
2187;SDS011;1100;52.014;8.540;2022-07-24T15:21:05;6.38;;;3.00;;
2187;SDS011;1100;52.014;8.540;2022-07-24T15:23:31;5.67;;;3.10;;
2187;SDS011;1100;52.014;8.540;2022-07-24T15:25:56;6.30;;;3.00;;
2187;SDS011;1100;52.014;8.540;2022-07-24T15:28:21;5.60;;;3.10;;
2187;SDS011;1100;52.014;8.540;2022-07-24T15:30:47;5.25;;;3.03;;
2187;SDS011;1100;52.014;8.540;2022-07-24T15:33:12;6.00;;;3.00;;
2187;SDS011;1100;52.014;8.540;2022-07-24T15:35:37;5.87;;;3.03;;
2187;SDS011;1100;52.014;8.540;2022-07-24T15:38:03;5.50;;;3.50;;
2187;SDS011;1100;52.014;8.540;2022-07-24T15:40:28;6.17;;;3.10;;